sensor_id;sensor_type;location;lat;lon;timestamp;P1;durP1;ratioP1;P2;durP2;ratioP2
11425;SDS011;5769;47.998;7.788;2024-02-04T00:02:01;182.82;;;63.83;;
11425;SDS011;5769;47.998;7.788;2024-02-04T00:04:29;182.93;;;60.70;;
11425;SDS011;5769;47.998;7.788;2024-02-04T00:06:57;184.13;;;62.20;;
11425;SDS011;5769;47.998;7.788;2024-02-04T00:09:24;185.50;;;63.38;;
11425;SDS011;5769;47.998;7.788;2024-02-04T00:11:53;188.73;;;62.30;;
11425;SDS011;5769;47.998;7.788;2024-02-04T00:14:20;188.00;;;63.20;;
11425;SDS011;5769;47.998;7.788;2024-02-04T00:16:49;185.73;;;61.70;;
11425;SDS011;5769;47.998;7.788;2024-02-04T00:19:15;184.95;;;64.30;;
11425;SDS011;5769;47.998;7.788;2024-02-04T00:21:42;181.77;;;60.97;;
11425;SDS011;5769;47.998;7.788;2024-02-04T00:24:09;182.23;;;60.25;;
11425;SDS011;5769;47.998;7.788;2024-02-04T00:26:36;181.98;;;60.42;;
11425;SDS011;5769;47.998;7.788;2024-02-04T00:29:03;184.77;;;63.15;;
11425;SDS011;5769;47.998;7.788;2024-02-04T00:31:29;183.70;;;62.10;;
11425;SDS011;5769;47.998;7.788;2024-02-04T00:33:58;183.90;;;62.28;;
11425;SDS011;5769;47.998;7.788;2024-02-04T00:36:25;181.15;;;59.92;;
11425;SDS011;5769;47.998;7.788;2024-02-04T00:38:52;184.20;;;62.63;;
11425;SDS011;5769;47.998;7.788;2024-02-04T00:41:20;181.95;;;60.13;;
11425;SDS011;5769;47.998;7.788;2024-02-04T00:43:47;184.07;;;61.03;;
11425;SDS011;5769;47.998;7.788;2024-02-04T00:46:14;184.40;;;62.88;;
11425;SDS011;5769;47.998;7.788;2024-02-04T00:48:40;184.70;;;62.15;;
11425;SDS011;5769;47.998;7.788;2024-02-04T00:51:08;186.13;;;61.85;;
11425;SDS011;5769;47.998;7.788;2024-02-04T00:53:36;186.70;;;62.08;;
11425;SDS011;5769;47.998;7.788;2024-02-04T00:56:06;188.95;;;63.63;;
11425;SDS011;5769;47.998;7.788;2024-02-04T00:58:33;188.10;;;62.42;;
11425;SDS011;5769;47.998;7.788;2024-02-04T01:01:00;185.93;;;60.78;;
11425;SDS011;5769;47.998;7.788;2024-02-04T01:03:28;187.10;;;63.20;;
11425;SDS011;5769;47.998;7.788;2024-02-04T01:05:55;183.68;;;61.33;;
11425;SDS011;5769;47.998;7.788;2024-02-04T01:08:23;184.20;;;62.00;;
11425;SDS011;5769;47.998;7.788;2024-02-04T01:10:56;186.95;;;61.53;;
11425;SDS011;5769;47.998;7.788;2024-02-04T01:13:22;184.02;;;60.72;;
11425;SDS011;5769;47.998;7.788;2024-02-04T01:15:52;185.93;;;61.45;;
11425;SDS011;5769;47.998;7.788;2024-02-04T01:18:19;184.15;;;63.28;;
11425;SDS011;5769;47.998;7.788;2024-02-04T01:20:46;181.50;;;61.90;;
11425;SDS011;5769;47.998;7.788;2024-02-04T01:23:12;182.63;;;61.20;;
11425;SDS011;5769;47.998;7.788;2024-02-04T01:25:43;181.65;;;62.90;;
11425;SDS011;5769;47.998;7.788;2024-02-04T01:28:10;179.30;;;63.58;;
11425;SDS011;5769;47.998;7.788;2024-02-04T01:30:37;178.75;;;62.45;;
11425;SDS011;5769;47.998;7.788;2024-02-04T01:33:04;180.15;;;61.88;;
11425;SDS011;5769;47.998;7.788;2024-02-04T01:35:33;179.05;;;60.40;;
11425;SDS011;5769;47.998;7.788;2024-02-04T01:38:00;178.68;;;62.38;;
11425;SDS011;5769;47.998;7.788;2024-02-04T01:40:26;180.40;;;62.50;;
11425;SDS011;5769;47.998;7.788;2024-02-04T01:42:54;180.05;;;64.50;;
11425;SDS011;5769;47.998;7.788;2024-02-04T01:45:21;179.05;;;60.72;;
11425;SDS011;5769;47.998;7.788;2024-02-04T01:47:49;182.05;;;63.67;;
11425;SDS011;5769;47.998;7.788;2024-02-04T01:50:18;182.52;;;63.10;;
11425;SDS011;5769;47.998;7.788;2024-02-04T01:52:44;184.15;;;63.20;;
11425;SDS011;5769;47.998;7.788;2024-02-04T01:55:12;183.77;;;62.58;;
11425;SDS011;5769;47.998;7.788;2024-02-04T01:57:39;183.60;;;60.83;;
11425;SDS011;5769;47.998;7.788;2024-02-04T02:00:08;186.13;;;63.55;;
11425;SDS011;5769;47.998;7.788;2024-02-04T02:02:37;186.30;;;62.25;;
11425;SDS011;5769;47.998;7.788;2024-02-04T02:05:05;184.98;;;60.97;;
11425;SDS011;5769;47.998;7.788;2024-02-04T02:07:33;187.60;;;61.78;;
11425;SDS011;5769;47.998;7.788;2024-02-04T02:10:00;185.13;;;58.97;;
11425;SDS011;5769;47.998;7.788;2024-02-04T02:12:27;186.88;;;62.97;;
11425;SDS011;5769;47.998;7.788;2024-02-04T02:15:01;187.98;;;62.70;;
11425;SDS011;5769;47.998;7.788;2024-02-04T02:17:38;184.93;;;60.28;;
11425;SDS011;5769;47.998;7.788;2024-02-04T02:20:15;186.40;;;60.75;;
11425;SDS011;5769;47.998;7.788;2024-02-04T02:22:48;186.15;;;59.13;;
11425;SDS011;5769;47.998;7.788;2024-02-04T02:25:18;188.43;;;62.38;;
11425;SDS011;5769;47.998;7.788;2024-02-04T02:27:46;188.20;;;60.10;;
11425;SDS011;5769;47.998;7.788;2024-02-04T02:30:14;189.68;;;63.30;;
11425;SDS011;5769;47.998;7.788;2024-02-04T02:32:41;187.40;;;60.30;;
11425;SDS011;5769;47.998;7.788;2024-02-04T02:35:08;187.68;;;61.42;;
11425;SDS011;5769;47.998;7.788;2024-02-04T02:37:36;186.05;;;61.47;;
11425;SDS011;5769;47.998;7.788;2024-02-04T02:40:10;184.90;;;62.97;;
11425;SDS011;5769;47.998;7.788;2024-02-04T02:42:43;185.10;;;60.03;;
11425;SDS011;5769;47.998;7.788;2024-02-04T02:45:15;185.90;;;59.90;;
11425;SDS011;5769;47.998;7.788;2024-02-04T02:47:42;186.55;;;60.80;;
11425;SDS011;5769;47.998;7.788;2024-02-04T02:50:12;186.95;;;60.80;;
11425;SDS011;5769;47.998;7.788;2024-02-04T02:52:41;188.80;;;62.97;;
11425;SDS011;5769;47.998;7.788;2024-02-04T02:55:08;187.68;;;60.63;;
11425;SDS011;5769;47.998;7.788;2024-02-04T02:57:35;187.82;;;60.78;;
11425;SDS011;5769;47.998;7.788;2024-02-04T03:00:05;187.68;;;60.22;;
11425;SDS011;5769;47.998;7.788;2024-02-04T03:02:34;189.45;;;61.78;;
11425;SDS011;5769;47.998;7.788;2024-02-04T03:05:00;188.77;;;61.22;;
11425;SDS011;5769;47.998;7.788;2024-02-04T03:07:28;189.35;;;59.47;;
11425;SDS011;5769;47.998;7.788;2024-02-04T03:09:54;192.65;;;64.03;;
11425;SDS011;5769;47.998;7.788;2024-02-04T03:12:22;190.52;;;60.80;;
11425;SDS011;5769;47.998;7.788;2024-02-04T03:14:49;190.07;;;59.55;;
11425;SDS011;5769;47.998;7.788;2024-02-04T03:17:17;193.38;;;63.13;;
11425;SDS011;5769;47.998;7.788;2024-02-04T03:19:45;194.13;;;62.47;;
11425;SDS011;5769;47.998;7.788;2024-02-04T03:22:13;192.77;;;62.45;;
11425;SDS011;5769;47.998;7.788;2024-02-04T03:24:40;190.68;;;61.25;;
11425;SDS011;5769;47.998;7.788;2024-02-04T03:27:07;191.15;;;61.08;;
11425;SDS011;5769;47.998;7.788;2024-02-04T03:29:33;190.40;;;60.65;;
11425;SDS011;5769;47.998;7.788;2024-02-04T03:32:01;190.48;;;63.17;;
11425;SDS011;5769;47.998;7.788;2024-02-04T03:34:29;187.43;;;61.80;;
11425;SDS011;5769;47.998;7.788;2024-02-04T03:36:56;183.95;;;59.15;;
11425;SDS011;5769;47.998;7.788;2024-02-04T03:39:22;188.73;;;62.10;;
11425;SDS011;5769;47.998;7.788;2024-02-04T03:41:49;188.07;;;61.55;;
11425;SDS011;5769;47.998;7.788;2024-02-04T03:44:16;189.85;;;61.80;;
11425;SDS011;5769;47.998;7.788;2024-02-04T03:46:43;189.68;;;62.60;;
11425;SDS011;5769;47.998;7.788;2024-02-04T03:49:13;191.70;;;62.30;;
11425;SDS011;5769;47.998;7.788;2024-02-04T03:51:42;188.60;;;58.78;;
11425;SDS011;5769;47.998;7.788;2024-02-04T03:54:09;193.60;;;61.83;;
11425;SDS011;5769;47.998;7.788;2024-02-04T03:56:35;193.73;;;61.53;;
11425;SDS011;5769;47.998;7.788;2024-02-04T03:59:02;194.65;;;61.92;;
11425;SDS011;5769;47.998;7.788;2024-02-04T04:01:29;194.50;;;60.85;;
11425;SDS011;5769;47.998;7.788;2024-02-04T04:03:56;192.15;;;61.75;;
11425;SDS011;5769;47.998;7.788;2024-02-04T04:06:22;190.63;;;59.40;;
11425;SDS011;5769;47.998;7.788;2024-02-04T04:08:50;191.63;;;60.40;;
11425;SDS011;5769;47.998;7.788;2024-02-04T04:11:17;193.32;;;61.63;;
11425;SDS011;5769;47.998;7.788;2024-02-04T04:13:45;192.10;;;59.05;;
11425;SDS011;5769;47.998;7.788;2024-02-04T04:16:11;193.00;;;61.10;;
11425;SDS011;5769;47.998;7.788;2024-02-04T04:18:38;193.45;;;60.60;;
11425;SDS011;5769;47.998;7.788;2024-02-04T04:21:05;197.38;;;61.83;;
11425;SDS011;5769;47.998;7.788;2024-02-04T04:23:32;196.98;;;59.97;;
11425;SDS011;5769;47.998;7.788;2024-02-04T04:26:00;195.52;;;59.72;;
11425;SDS011;5769;47.998;7.788;2024-02-04T04:28:26;196.60;;;59.50;;
11425;SDS011;5769;47.998;7.788;2024-02-04T04:30:53;201.48;;;59.53;;
11425;SDS011;5769;47.998;7.788;2024-02-04T04:33:20;202.07;;;62.08;;
11425;SDS011;5769;47.998;7.788;2024-02-04T04:35:48;200.48;;;61.55;;
11425;SDS011;5769;47.998;7.788;2024-02-04T04:38:15;199.82;;;61.17;;
11425;SDS011;5769;47.998;7.788;2024-02-04T04:40:41;201.25;;;60.92;;
11425;SDS011;5769;47.998;7.788;2024-02-04T04:43:09;203.23;;;60.42;;
11425;SDS011;5769;47.998;7.788;2024-02-04T04:45:36;202.43;;;62.20;;
11425;SDS011;5769;47.998;7.788;2024-02-04T04:48:03;197.73;;;60.47;;
11425;SDS011;5769;47.998;7.788;2024-02-04T04:50:32;194.93;;;60.75;;
11425;SDS011;5769;47.998;7.788;2024-02-04T04:52:59;196.73;;;60.17;;
11425;SDS011;5769;47.998;7.788;2024-02-04T04:55:26;196.68;;;61.47;;
11425;SDS011;5769;47.998;7.788;2024-02-04T04:57:53;197.63;;;62.58;;
11425;SDS011;5769;47.998;7.788;2024-02-04T05:00:21;196.15;;;60.70;;
11425;SDS011;5769;47.998;7.788;2024-02-04T05:02:48;197.25;;;60.38;;
11425;SDS011;5769;47.998;7.788;2024-02-04T05:05:14;193.43;;;59.97;;
11425;SDS011;5769;47.998;7.788;2024-02-04T05:07:41;193.45;;;59.67;;
11425;SDS011;5769;47.998;7.788;2024-02-04T05:10:08;196.95;;;62.53;;
11425;SDS011;5769;47.998;7.788;2024-02-04T05:12:35;194.23;;;61.38;;
11425;SDS011;5769;47.998;7.788;2024-02-04T05:15:02;191.48;;;58.28;;
11425;SDS011;5769;47.998;7.788;2024-02-04T05:17:31;195.60;;;62.03;;
11425;SDS011;5769;47.998;7.788;2024-02-04T05:19:58;195.25;;;60.38;;
11425;SDS011;5769;47.998;7.788;2024-02-04T05:22:25;195.60;;;60.88;;
11425;SDS011;5769;47.998;7.788;2024-02-04T05:24:52;193.70;;;59.65;;
11425;SDS011;5769;47.998;7.788;2024-02-04T05:27:18;192.13;;;59.60;;
11425;SDS011;5769;47.998;7.788;2024-02-04T05:29:45;193.30;;;60.75;;
11425;SDS011;5769;47.998;7.788;2024-02-04T05:32:12;193.82;;;62.42;;
11425;SDS011;5769;47.998;7.788;2024-02-04T05:34:40;195.85;;;61.95;;
11425;SDS011;5769;47.998;7.788;2024-02-04T05:37:07;194.35;;;60.95;;
11425;SDS011;5769;47.998;7.788;2024-02-04T05:39:34;194.23;;;60.60;;
11425;SDS011;5769;47.998;7.788;2024-02-04T05:42:00;195.40;;;60.15;;
11425;SDS011;5769;47.998;7.788;2024-02-04T05:44:27;196.95;;;61.10;;
11425;SDS011;5769;47.998;7.788;2024-02-04T05:46:54;195.63;;;61.00;;
11425;SDS011;5769;47.998;7.788;2024-02-04T05:49:21;197.23;;;63.50;;
11425;SDS011;5769;47.998;7.788;2024-02-04T05:51:49;197.07;;;61.45;;
11425;SDS011;5769;47.998;7.788;2024-02-04T05:54:16;197.32;;;61.30;;
11425;SDS011;5769;47.998;7.788;2024-02-04T05:56:43;198.02;;;61.47;;
11425;SDS011;5769;47.998;7.788;2024-02-04T05:59:09;196.85;;;60.20;;
11425;SDS011;5769;47.998;7.788;2024-02-04T06:01:36;196.63;;;62.17;;
11425;SDS011;5769;47.998;7.788;2024-02-04T06:04:03;196.40;;;62.30;;
11425;SDS011;5769;47.998;7.788;2024-02-04T06:06:30;196.52;;;60.58;;
11425;SDS011;5769;47.998;7.788;2024-02-04T06:08:58;196.40;;;60.38;;
11425;SDS011;5769;47.998;7.788;2024-02-04T06:11:25;196.50;;;60.72;;
11425;SDS011;5769;47.998;7.788;2024-02-04T06:13:51;196.52;;;61.70;;
11425;SDS011;5769;47.998;7.788;2024-02-04T06:16:18;194.25;;;59.92;;
11425;SDS011;5769;47.998;7.788;2024-02-04T06:18:45;195.77;;;59.63;;
11425;SDS011;5769;47.998;7.788;2024-02-04T06:21:12;197.63;;;60.75;;
11425;SDS011;5769;47.998;7.788;2024-02-04T06:23:39;196.05;;;59.00;;
11425;SDS011;5769;47.998;7.788;2024-02-04T06:26:07;196.07;;;58.00;;
11425;SDS011;5769;47.998;7.788;2024-02-04T06:28:33;199.40;;;59.38;;
11425;SDS011;5769;47.998;7.788;2024-02-04T06:31:01;201.20;;;61.20;;
11425;SDS011;5769;47.998;7.788;2024-02-04T06:33:28;201.07;;;60.50;;
11425;SDS011;5769;47.998;7.788;2024-02-04T06:35:54;201.43;;;60.55;;
11425;SDS011;5769;47.998;7.788;2024-02-04T06:38:22;202.65;;;60.33;;
11425;SDS011;5769;47.998;7.788;2024-02-04T06:40:48;204.13;;;60.95;;
11425;SDS011;5769;47.998;7.788;2024-02-04T06:43:16;204.70;;;59.40;;
11425;SDS011;5769;47.998;7.788;2024-02-04T06:45:43;205.75;;;60.92;;
11425;SDS011;5769;47.998;7.788;2024-02-04T06:48:10;209.63;;;65.25;;
11425;SDS011;5769;47.998;7.788;2024-02-04T06:50:37;207.05;;;61.03;;
11425;SDS011;5769;47.998;7.788;2024-02-04T06:53:04;206.82;;;60.97;;
11425;SDS011;5769;47.998;7.788;2024-02-04T06:55:30;207.77;;;59.90;;
11425;SDS011;5769;47.998;7.788;2024-02-04T06:57:57;209.32;;;61.05;;
11425;SDS011;5769;47.998;7.788;2024-02-04T07:00:25;208.73;;;59.70;;
11425;SDS011;5769;47.998;7.788;2024-02-04T07:02:52;208.13;;;59.50;;
11425;SDS011;5769;47.998;7.788;2024-02-04T07:05:19;208.60;;;59.70;;
11425;SDS011;5769;47.998;7.788;2024-02-04T07:07:47;209.30;;;60.85;;
11425;SDS011;5769;47.998;7.788;2024-02-04T07:10:13;217.52;;;75.70;;
11425;SDS011;5769;47.998;7.788;2024-02-04T07:12:40;210.23;;;61.22;;
11425;SDS011;5769;47.998;7.788;2024-02-04T07:15:07;210.40;;;61.15;;
11425;SDS011;5769;47.998;7.788;2024-02-04T07:17:36;216.63;;;69.03;;
11425;SDS011;5769;47.998;7.788;2024-02-04T07:20:03;212.00;;;62.58;;
11425;SDS011;5769;47.998;7.788;2024-02-04T07:22:31;210.98;;;61.60;;
11425;SDS011;5769;47.998;7.788;2024-02-04T07:24:58;215.75;;;65.57;;
11425;SDS011;5769;47.998;7.788;2024-02-04T07:27:25;213.02;;;61.15;;
11425;SDS011;5769;47.998;7.788;2024-02-04T07:29:52;213.27;;;61.78;;
11425;SDS011;5769;47.998;7.788;2024-02-04T07:32:20;213.70;;;64.15;;
11425;SDS011;5769;47.998;7.788;2024-02-04T07:34:50;212.75;;;60.80;;
11425;SDS011;5769;47.998;7.788;2024-02-04T07:37:17;214.45;;;60.90;;
11425;SDS011;5769;47.998;7.788;2024-02-04T07:39:44;214.63;;;60.35;;
11425;SDS011;5769;47.998;7.788;2024-02-04T07:42:11;215.30;;;60.75;;
11425;SDS011;5769;47.998;7.788;2024-02-04T07:44:38;214.00;;;58.67;;
11425;SDS011;5769;47.998;7.788;2024-02-04T07:47:08;214.40;;;60.55;;
11425;SDS011;5769;47.998;7.788;2024-02-04T07:49:44;212.40;;;60.05;;
11425;SDS011;5769;47.998;7.788;2024-02-04T07:52:12;214.98;;;60.83;;
11425;SDS011;5769;47.998;7.788;2024-02-04T07:54:39;215.07;;;60.10;;
11425;SDS011;5769;47.998;7.788;2024-02-04T07:57:08;213.98;;;60.13;;
11425;SDS011;5769;47.998;7.788;2024-02-04T07:59:35;215.23;;;60.35;;
11425;SDS011;5769;47.998;7.788;2024-02-04T08:02:02;214.45;;;60.42;;
11425;SDS011;5769;47.998;7.788;2024-02-04T08:04:29;213.68;;;60.05;;
11425;SDS011;5769;47.998;7.788;2024-02-04T08:06:55;215.05;;;60.88;;
11425;SDS011;5769;47.998;7.788;2024-02-04T08:09:24;214.27;;;59.50;;
11425;SDS011;5769;47.998;7.788;2024-02-04T08:11:50;213.93;;;61.08;;
11425;SDS011;5769;47.998;7.788;2024-02-04T08:14:20;222.80;;;74.28;;
11425;SDS011;5769;47.998;7.788;2024-02-04T08:16:47;211.80;;;60.38;;
11425;SDS011;5769;47.998;7.788;2024-02-04T08:19:14;212.35;;;60.97;;
11425;SDS011;5769;47.998;7.788;2024-02-04T08:21:41;216.07;;;68.13;;
11425;SDS011;5769;47.998;7.788;2024-02-04T08:24:08;214.15;;;62.40;;
11425;SDS011;5769;47.998;7.788;2024-02-04T08:26:36;216.18;;;62.15;;
11425;SDS011;5769;47.998;7.788;2024-02-04T08:29:02;216.55;;;62.72;;
11425;SDS011;5769;47.998;7.788;2024-02-04T08:31:30;215.25;;;60.28;;
11425;SDS011;5769;47.998;7.788;2024-02-04T08:33:58;216.10;;;61.38;;
11425;SDS011;5769;47.998;7.788;2024-02-04T08:36:26;235.95;;;80.60;;
11425;SDS011;5769;47.998;7.788;2024-02-04T08:38:55;219.40;;;61.35;;
11425;SDS011;5769;47.998;7.788;2024-02-04T08:41:22;220.90;;;62.05;;
11425;SDS011;5769;47.998;7.788;2024-02-04T08:43:50;225.07;;;67.80;;
11425;SDS011;5769;47.998;7.788;2024-02-04T08:46:17;220.38;;;60.65;;
11425;SDS011;5769;47.998;7.788;2024-02-04T08:48:44;220.60;;;60.63;;
11425;SDS011;5769;47.998;7.788;2024-02-04T08:51:11;228.82;;;71.90;;
11425;SDS011;5769;47.998;7.788;2024-02-04T08:53:38;220.27;;;61.38;;
11425;SDS011;5769;47.998;7.788;2024-02-04T08:56:05;221.70;;;61.97;;
11425;SDS011;5769;47.998;7.788;2024-02-04T08:58:33;222.73;;;61.20;;
11425;SDS011;5769;47.998;7.788;2024-02-04T09:01:03;221.10;;;59.85;;
11425;SDS011;5769;47.998;7.788;2024-02-04T09:03:30;223.77;;;61.58;;
11425;SDS011;5769;47.998;7.788;2024-02-04T09:05:57;221.77;;;60.55;;
11425;SDS011;5769;47.998;7.788;2024-02-04T09:08:24;223.15;;;61.20;;
11425;SDS011;5769;47.998;7.788;2024-02-04T09:10:51;223.52;;;60.97;;
11425;SDS011;5769;47.998;7.788;2024-02-04T09:13:18;226.07;;;62.40;;
11425;SDS011;5769;47.998;7.788;2024-02-04T09:15:45;222.63;;;60.08;;
11425;SDS011;5769;47.998;7.788;2024-02-04T09:18:13;224.07;;;58.20;;
11425;SDS011;5769;47.998;7.788;2024-02-04T09:20:40;229.27;;;61.30;;
11425;SDS011;5769;47.998;7.788;2024-02-04T09:23:10;223.98;;;57.42;;
11425;SDS011;5769;47.998;7.788;2024-02-04T09:25:37;226.85;;;59.45;;
11425;SDS011;5769;47.998;7.788;2024-02-04T09:28:04;228.10;;;59.33;;
11425;SDS011;5769;47.998;7.788;2024-02-04T09:30:31;229.52;;;59.20;;
11425;SDS011;5769;47.998;7.788;2024-02-04T09:32:58;229.73;;;60.42;;
11425;SDS011;5769;47.998;7.788;2024-02-04T09:35:26;224.75;;;61.10;;
11425;SDS011;5769;47.998;7.788;2024-02-04T09:37:54;230.13;;;59.85;;
11425;SDS011;5769;47.998;7.788;2024-02-04T09:40:21;230.55;;;59.63;;
11425;SDS011;5769;47.998;7.788;2024-02-04T09:42:48;228.88;;;58.80;;
11425;SDS011;5769;47.998;7.788;2024-02-04T09:45:17;230.15;;;58.58;;
11425;SDS011;5769;47.998;7.788;2024-02-04T09:47:44;231.60;;;60.47;;
11425;SDS011;5769;47.998;7.788;2024-02-04T09:50:12;236.15;;;67.15;;
11425;SDS011;5769;47.998;7.788;2024-02-04T09:52:40;232.80;;;60.55;;
11425;SDS011;5769;47.998;7.788;2024-02-04T09:55:17;230.60;;;58.70;;
11425;SDS011;5769;47.998;7.788;2024-02-04T09:57:46;234.07;;;60.80;;
11425;SDS011;5769;47.998;7.788;2024-02-04T10:00:13;232.20;;;58.80;;
11425;SDS011;5769;47.998;7.788;2024-02-04T10:02:43;231.82;;;57.22;;
11425;SDS011;5769;47.998;7.788;2024-02-04T10:05:10;237.68;;;67.05;;
11425;SDS011;5769;47.998;7.788;2024-02-04T10:07:37;231.32;;;59.78;;
11425;SDS011;5769;47.998;7.788;2024-02-04T10:10:06;230.32;;;57.95;;
11425;SDS011;5769;47.998;7.788;2024-02-04T10:12:34;232.20;;;59.30;;
11425;SDS011;5769;47.998;7.788;2024-02-04T10:15:03;232.75;;;57.92;;
11425;SDS011;5769;47.998;7.788;2024-02-04T10:17:31;231.10;;;57.05;;
11425;SDS011;5769;47.998;7.788;2024-02-04T10:19:59;230.90;;;57.75;;
11425;SDS011;5769;47.998;7.788;2024-02-04T10:22:26;230.63;;;57.28;;
11425;SDS011;5769;47.998;7.788;2024-02-04T10:24:53;234.43;;;60.60;;
11425;SDS011;5769;47.998;7.788;2024-02-04T10:27:32;234.35;;;59.25;;
11425;SDS011;5769;47.998;7.788;2024-02-04T10:29:59;233.25;;;58.28;;
11425;SDS011;5769;47.998;7.788;2024-02-04T10:32:26;241.40;;;68.50;;
11425;SDS011;5769;47.998;7.788;2024-02-04T10:34:53;234.50;;;58.95;;
11425;SDS011;5769;47.998;7.788;2024-02-04T10:37:19;235.68;;;59.40;;
11425;SDS011;5769;47.998;7.788;2024-02-04T10:39:46;233.90;;;59.22;;
11425;SDS011;5769;47.998;7.788;2024-02-04T10:42:13;230.18;;;59.92;;
11425;SDS011;5769;47.998;7.788;2024-02-04T10:44:42;230.55;;;59.25;;
11425;SDS011;5769;47.998;7.788;2024-02-04T10:47:14;228.15;;;59.17;;
11425;SDS011;5769;47.998;7.788;2024-02-04T10:49:49;228.30;;;57.92;;
11425;SDS011;5769;47.998;7.788;2024-02-04T10:52:18;230.55;;;58.85;;
11425;SDS011;5769;47.998;7.788;2024-02-04T10:54:45;231.75;;;59.03;;
11425;SDS011;5769;47.998;7.788;2024-02-04T10:57:14;238.23;;;65.07;;
11425;SDS011;5769;47.998;7.788;2024-02-04T10:59:48;233.68;;;58.08;;
11425;SDS011;5769;47.998;7.788;2024-02-04T11:02:17;232.27;;;58.08;;
11425;SDS011;5769;47.998;7.788;2024-02-04T11:04:46;241.07;;;66.38;;
11425;SDS011;5769;47.998;7.788;2024-02-04T11:07:15;233.35;;;57.50;;
11425;SDS011;5769;47.998;7.788;2024-02-04T11:09:43;233.02;;;59.05;;
11425;SDS011;5769;47.998;7.788;2024-02-04T11:12:12;239.95;;;65.88;;
11425;SDS011;5769;47.998;7.788;2024-02-04T11:14:42;234.20;;;58.45;;
11425;SDS011;5769;47.998;7.788;2024-02-04T11:20:26;236.82;;;60.75;;
11425;SDS011;5769;47.998;7.788;2024-02-04T11:23:12;234.98;;;60.42;;
11425;SDS011;5769;47.998;7.788;2024-02-04T11:25:52;233.27;;;57.78;;
11425;SDS011;5769;47.998;7.788;2024-02-04T11:28:20;236.70;;;58.03;;
11425;SDS011;5769;47.998;7.788;2024-02-04T11:30:48;235.60;;;59.75;;
11425;SDS011;5769;47.998;7.788;2024-02-04T11:33:17;243.75;;;72.38;;
11425;SDS011;5769;47.998;7.788;2024-02-04T11:35:47;231.68;;;58.90;;
11425;SDS011;5769;47.998;7.788;2024-02-04T11:38:28;231.38;;;59.97;;
11425;SDS011;5769;47.998;7.788;2024-02-04T11:40:56;230.68;;;61.88;;
11425;SDS011;5769;47.998;7.788;2024-02-04T11:43:23;230.15;;;58.15;;
11425;SDS011;5769;47.998;7.788;2024-02-04T11:45:51;228.32;;;57.65;;
11425;SDS011;5769;47.998;7.788;2024-02-04T11:48:19;230.75;;;59.78;;
11425;SDS011;5769;47.998;7.788;2024-02-04T11:50:53;230.60;;;59.35;;
11425;SDS011;5769;47.998;7.788;2024-02-04T11:53:22;228.15;;;57.80;;
11425;SDS011;5769;47.998;7.788;2024-02-04T11:55:52;224.20;;;59.92;;
11425;SDS011;5769;47.998;7.788;2024-02-04T11:58:19;225.43;;;59.03;;
11425;SDS011;5769;47.998;7.788;2024-02-04T12:00:46;229.98;;;61.58;;
11425;SDS011;5769;47.998;7.788;2024-02-04T12:03:14;228.90;;;58.58;;
11425;SDS011;5769;47.998;7.788;2024-02-04T12:05:41;228.40;;;59.47;;
11425;SDS011;5769;47.998;7.788;2024-02-04T12:08:11;229.93;;;60.03;;
11425;SDS011;5769;47.998;7.788;2024-02-04T12:10:38;233.73;;;59.63;;
11425;SDS011;5769;47.998;7.788;2024-02-04T12:13:09;229.52;;;57.78;;
11425;SDS011;5769;47.998;7.788;2024-02-04T12:15:36;227.07;;;56.03;;
11425;SDS011;5769;47.998;7.788;2024-02-04T12:18:07;233.13;;;59.67;;
11425;SDS011;5769;47.998;7.788;2024-02-04T12:20:34;230.90;;;57.00;;
11425;SDS011;5769;47.998;7.788;2024-02-04T12:23:02;233.57;;;58.70;;
11425;SDS011;5769;47.998;7.788;2024-02-04T12:25:34;235.30;;;58.58;;
11425;SDS011;5769;47.998;7.788;2024-02-04T12:28:04;235.27;;;58.10;;
11425;SDS011;5769;47.998;7.788;2024-02-04T12:30:32;237.07;;;59.83;;
11425;SDS011;5769;47.998;7.788;2024-02-04T12:32:59;236.23;;;59.47;;
11425;SDS011;5769;47.998;7.788;2024-02-04T12:35:27;240.32;;;60.38;;
11425;SDS011;5769;47.998;7.788;2024-02-04T12:37:55;238.25;;;59.08;;
11425;SDS011;5769;47.998;7.788;2024-02-04T12:40:25;244.27;;;64.72;;
11425;SDS011;5769;47.998;7.788;2024-02-04T12:42:58;242.27;;;59.95;;
11425;SDS011;5769;47.998;7.788;2024-02-04T12:45:26;239.43;;;57.80;;
11425;SDS011;5769;47.998;7.788;2024-02-04T12:47:54;243.95;;;63.88;;
11425;SDS011;5769;47.998;7.788;2024-02-04T12:50:24;241.00;;;58.13;;
11425;SDS011;5769;47.998;7.788;2024-02-04T12:53:01;242.80;;;59.38;;
11425;SDS011;5769;47.998;7.788;2024-02-04T12:55:29;248.70;;;65.78;;
11425;SDS011;5769;47.998;7.788;2024-02-04T12:58:05;242.00;;;56.92;;
11425;SDS011;5769;47.998;7.788;2024-02-04T13:00:33;241.20;;;59.65;;
11425;SDS011;5769;47.998;7.788;2024-02-04T13:03:02;244.77;;;58.78;;
11425;SDS011;5769;47.998;7.788;2024-02-04T13:05:30;247.88;;;59.97;;
11425;SDS011;5769;47.998;7.788;2024-02-04T13:08:00;255.80;;;72.05;;
11425;SDS011;5769;47.998;7.788;2024-02-04T13:10:29;247.25;;;57.35;;
11425;SDS011;5769;47.998;7.788;2024-02-04T13:13:01;243.18;;;58.85;;
11425;SDS011;5769;47.998;7.788;2024-02-04T13:15:32;240.68;;;59.90;;
11425;SDS011;5769;47.998;7.788;2024-02-04T13:18:02;236.88;;;59.80;;
11425;SDS011;5769;47.998;7.788;2024-02-04T13:20:29;230.45;;;58.20;;
11425;SDS011;5769;47.998;7.788;2024-02-04T13:22:56;230.80;;;59.25;;
11425;SDS011;5769;47.998;7.788;2024-02-04T13:25:28;228.60;;;59.33;;
11425;SDS011;5769;47.998;7.788;2024-02-04T13:27:55;227.82;;;60.08;;
11425;SDS011;5769;47.998;7.788;2024-02-04T13:30:22;230.27;;;60.55;;
11425;SDS011;5769;47.998;7.788;2024-02-04T13:32:50;231.90;;;59.50;;
11425;SDS011;5769;47.998;7.788;2024-02-04T13:35:18;232.73;;;58.83;;
11425;SDS011;5769;47.998;7.788;2024-02-04T13:37:45;229.50;;;59.67;;
11425;SDS011;5769;47.998;7.788;2024-02-04T13:40:13;233.07;;;59.25;;
11425;SDS011;5769;47.998;7.788;2024-02-04T13:42:41;234.00;;;60.33;;
11425;SDS011;5769;47.998;7.788;2024-02-04T13:45:11;232.38;;;57.95;;
11425;SDS011;5769;47.998;7.788;2024-02-04T13:47:39;233.32;;;57.78;;
11425;SDS011;5769;47.998;7.788;2024-02-04T13:50:08;250.35;;;78.88;;
11425;SDS011;5769;47.998;7.788;2024-02-04T13:52:36;236.52;;;60.15;;
11425;SDS011;5769;47.998;7.788;2024-02-04T13:55:04;237.80;;;59.17;;
11425;SDS011;5769;47.998;7.788;2024-02-04T13:57:34;239.43;;;60.92;;
11425;SDS011;5769;47.998;7.788;2024-02-04T14:00:02;244.40;;;66.63;;
11425;SDS011;5769;47.998;7.788;2024-02-04T14:02:32;234.85;;;58.00;;
11425;SDS011;5769;47.998;7.788;2024-02-04T14:04:59;233.00;;;59.38;;
11425;SDS011;5769;47.998;7.788;2024-02-04T14:07:27;244.32;;;66.65;;
11425;SDS011;5769;47.998;7.788;2024-02-04T14:09:55;241.40;;;59.83;;
11425;SDS011;5769;47.998;7.788;2024-02-04T14:12:22;235.25;;;57.15;;
11425;SDS011;5769;47.998;7.788;2024-02-04T14:14:48;234.68;;;57.45;;
11425;SDS011;5769;47.998;7.788;2024-02-04T14:17:15;235.65;;;59.50;;
11425;SDS011;5769;47.998;7.788;2024-02-04T14:19:42;234.45;;;59.83;;
11425;SDS011;5769;47.998;7.788;2024-02-04T14:22:14;250.60;;;83.95;;
11425;SDS011;5769;47.998;7.788;2024-02-04T14:24:43;230.32;;;60.83;;
11425;SDS011;5769;47.998;7.788;2024-02-04T14:27:11;234.10;;;61.38;;
11425;SDS011;5769;47.998;7.788;2024-02-04T14:29:38;232.27;;;59.08;;